Time;durP1;ratioP1;P1;durP2;ratioP2;P2;SDS_P1;SDS_P2;PMS_P1;PMS_P2;Temp;Humidity;BMP_temperature;BMP_pressure;BME280_temperature;BME280_humidity;BME280_pressure;Samples;Min_cycle;Max_cycle;Signal;HPM_P1;HPM_P2
2022/09/04 00:00:11;;;;;;;7.68;7.18;;;;;;;16.90;100.00;101281.56;5248807;28;20036;-81
2022/09/04 00:03:00;;;;;;;6.25;5.90;;;;;;;16.86;100.00;101281.31;5247800;28;20020;-81
2022/09/04 00:05:42;;;;;;;7.20;6.68;;;;;;;16.90;100.00;101276.94;5242199;28;20482;-81
2022/09/04 00:08:18;;;;;;;6.53;6.13;;;;;;;16.87;100.00;101289.22;5237700;28;20025;-81
2022/09/04 00:11:12;;;;;;;6.97;6.60;;;;;;;16.79;100.00;101295.28;5227979;28;20025;-81
2022/09/04 00:13:56;;;;;;;7.75;7.10;;;;;;;16.73;100.00;101296.47;5224101;28;20037;-79
2022/09/04 00:16:46;;;;;;;7.63;7.00;;;;;;;16.46;100.00;101260.66;5222696;28;20120;-80
2022/09/04 00:19:35;;;;;;;7.20;6.78;;;;;;;16.64;100.00;101303.63;5219663;28;20040;-80
2022/09/04 00:22:16;;;;;;;6.17;5.60;;;;;;;16.50;100.00;101280.78;5217702;28;20037;-79
2022/09/04 00:25:02;;;;;;;7.05;6.40;;;;;;;16.49;100.00;101281.88;5214409;28;20097;-79
2022/09/04 00:27:43;;;;;;;7.43;6.72;;;;;;;16.58;100.00;101303.91;5218187;28;20043;-79
2022/09/04 00:30:21;;;;;;;5.68;5.10;;;;;;;16.51;100.00;101298.78;5215994;28;20495;-79
2022/09/04 00:33:15;;;;;;;6.63;6.00;;;;;;;16.55;100.00;101308.03;5220691;28;20017;-79
2022/09/04 00:35:57;;;;;;;7.30;6.00;;;;;;;16.52;100.00;101309.41;5233868;28;20100;-79
2022/09/04 00:38:42;;;;;;;6.22;5.80;;;;;;;16.57;100.00;101303.09;5239568;28;20025;-80
2022/09/04 00:41:20;;;;;;;8.18;7.50;;;;;;;16.47;100.00;101281.38;5244634;28;20025;-80
2022/09/04 00:44:12;;;;;;;8.02;7.32;;;;;;;16.61;100.00;101309.63;5244125;28;20096;-80
2022/09/04 00:46:58;;;;;;;7.07;6.53;;;;;;;16.60;100.00;101318.06;5245961;28;20088;-80
2022/09/04 00:50:00;;;;;;;8.55;7.70;;;;;;;16.51;100.00;101321.41;5239008;28;20462;-80
2022/09/04 00:52:59;;;;;;;7.65;7.10;;;;;;;16.17;100.00;101279.69;5236159;28;20029;-80
2022/09/04 00:55:41;;;;;;;6.20;5.18;;;;;;;16.40;100.00;101319.88;5233956;28;20024;-79
2022/09/04 00:58:25;;;;;;;7.63;7.05;;;;;;;16.35;100.00;101325.34;5231706;28;20052;-80
2022/09/04 01:00:57;;;;;;;6.88;6.47;;;;;;;16.39;100.00;101326.41;5233665;28;20036;-79
2022/09/04 01:03:58;;;;;;;7.05;6.60;;;;;;;16.38;100.00;101334.88;5236112;28;20618;-80
2022/09/04 01:06:45;;;;;;;6.80;6.38;;;;;;;16.28;100.00;101326.75;5236364;28;20028;-80
2022/09/04 01:09:43;;;;;;;7.53;6.75;;;;;;;16.27;100.00;101339.56;5216079;28;20040;-81
2022/09/04 01:12:29;;;;;;;7.20;6.70;;;;;;;16.21;100.00;101348.88;5215565;28;20030;-80
2022/09/04 01:15:15;;;;;;;7.38;6.97;;;;;;;16.15;100.00;101352.75;5215022;28;20029;-80
2022/09/04 01:18:03;;;;;;;8.48;6.70;;;;;;;16.23;100.00;101348.59;5215337;28;20029;-80
2022/09/04 01:20:54;;;;;;;6.90;6.47;;;;;;;16.24;100.00;101358.38;5213205;28;20021;-81
2022/09/04 01:24:06;;;;;;;8.60;7.18;;;;;;;16.15;100.00;101361.72;5212696;28;20363;-81
2022/09/04 01:26:46;;;;;;;7.32;6.28;;;;;;;16.11;100.00;101357.94;5212490;28;20033;-81
2022/09/04 01:29:57;;;;;;;6.90;6.40;;;;;;;16.13;100.00;101358.47;5213385;28;20104;-82
2022/09/04 01:32:48;;;;;;;8.05;7.38;;;;;;;16.13;100.00;101358.47;5199872;28;20053;-82
2022/09/04 01:35:24;;;;;;;6.43;6.03;;;;;;;16.09;100.00;101362.03;5212634;28;20037;-82
2022/09/04 01:38:13;;;;;;;8.18;7.57;;;;;;;16.04;100.00;101360.16;5212687;28;20079;-82
2022/09/04 01:41:16;;;;;;;6.78;6.38;;;;;;;16.02;100.00;101359.59;5213608;28;20033;-82
2022/09/04 01:43:47;;;;;;;6.40;5.80;;;;;;;15.87;100.00;101346.06;5205349;28;20037;-81
2022/09/04 01:46:27;;;;;;;6.28;5.88;;;;;;;16.04;100.00;101371.03;5217997;28;20087;-83
2022/09/04 01:49:35;;;;;;;7.78;7.22;;;;;;;16.04;100.00;101364.78;5216104;28;20052;-82
2022/09/04 01:52:17;;;;;;;6.22;5.82;;;;;;;16.01;100.00;101374.31;5216480;28;20483;-81
2022/09/04 01:54:53;;;;;;;6.72;6.15;;;;;;;16.00;100.00;101371.88;5214193;28;20266;-81
2022/09/04 01:57:42;;;;;;;7.90;7.30;;;;;;;16.02;100.00;101377.84;5214219;28;20108;-82
2022/09/04 02:00:16;;;;;;;6.85;6.38;;;;;;;16.02;100.00;101388.75;5215606;28;20029;-80
2022/09/04 02:03:00;;;;;;;5.70;5.30;;;;;;;15.97;100.00;101367.78;5212789;28;20034;-80
2022/09/04 02:05:36;;;;;;;8.38;7.25;;;;;;;16.02;100.00;101388.75;5210443;28;20028;-80
2022/09/04 02:08:32;;;;;;;7.05;6.65;;;;;;;16.00;100.00;101386.31;5212786;28;20116;-80
2022/09/04 02:11:13;;;;;;;6.55;6.05;;;;;;;15.86;100.00;101379.84;5212100;28;20057;-81
2022/09/04 02:13:52;;;;;;;7.85;7.28;;;;;;;15.98;100.00;101391.22;5211488;28;20040;-81
2022/09/04 02:16:49;;;;;;;9.15;4.90;;;;;;;15.95;100.00;101388.25;5211958;28;20022;-80
2022/09/04 02:19:53;;;;;;;5.28;4.97;;;;;;;15.90;100.00;101397.25;5209071;28;20060;-81
2022/09/04 02:22:40;;;;;;;6.68;6.28;;;;;;;15.89;100.00;101390.16;5212812;28;20021;-81
2022/09/04 02:25:11;;;;;;;8.57;7.88;;;;;;;15.85;100.00;101389.13;5211674;28;20029;-81
2022/09/04 02:28:13;;;;;;;6.90;6.28;;;;;;;15.83;100.00;101397.56;5214053;28;20028;-81
2022/09/04 02:31:08;;;;;;;6.38;5.97;;;;;;;15.77;100.00;101397.84;5216622;28;20036;-79
2022/09/04 02:34:17;;;;;;;9.48;5.80;;;;;;;15.76;100.00;101388.03;5223057;28;20027;-80
2022/09/04 02:37:12;;;;;;;9.75;8.85;;;;;;;15.74;100.00;101399.22;5225092;28;20048;-80
2022/09/04 02:39:51;;;;;;;6.45;6.07;;;;;;;15.72;100.00;101403.31;5223980;28;20025;-79
2022/09/04 02:42:21;;;;;;;8.30;7.63;;;;;;;15.67;100.00;101403.31;5221851;28;20475;-79
2022/09/04 02:45:16;;;;;;;6.90;5.88;;;;;;;15.66;100.00;101412.56;5223583;28;20037;-80
2022/09/04 02:48:13;;;;;;;7.22;6.63;;;;;;;15.56;100.00;101390.81;5213478;28;20437;-79
2022/09/04 02:51:01;;;;;;;7.18;6.75;;;;;;;15.68;100.00;101413.13;5212792;28;20049;-80
2022/09/04 02:53:44;;;;;;;6.35;5.95;;;;;;;15.61;100.00;101401.69;5217133;28;20025;-80
2022/09/04 02:56:27;;;;;;;7.97;7.45;;;;;;;15.69;100.00;101410.13;5224314;28;20025;-81
2022/09/04 02:59:22;;;;;;;26.92;7.90;;;;;;;15.69;100.00;101412.03;5215800;28;20183;-80
2022/09/04 03:02:02;;;;;;;7.60;7.10;;;;;;;15.58;100.00;101405.81;5215801;28;20120;-80
2022/09/04 03:04:48;;;;;;;7.78;7.13;;;;;;;15.62;100.00;101411.50;5215125;28;20106;-80
2022/09/04 03:07:31;;;;;;;6.72;6.13;;;;;;;15.43;100.00;101395.72;5214767;28;20040;-80
2022/09/04 03:10:09;;;;;;;8.18;7.68;;;;;;;15.58;100.00;101415.88;5213836;28;20399;-80
2022/09/04 03:12:53;;;;;;;6.57;6.18;;;;;;;15.53;100.00;101409.31;5217306;28;20025;-81
2022/09/04 03:15:40;;;;;;;6.40;6.05;;;;;;;15.53;100.00;101414.78;5217255;28;20112;-81
2022/09/04 03:18:49;;;;;;;6.40;6.00;;;;;;;15.50;100.00;101422.66;5212234;28;20029;-80
2022/09/04 03:21:29;;;;;;;8.40;7.90;;;;;;;15.35;100.00;101399.00;5181387;28;20037;-81
2022/09/04 03:24:10;;;;;;;8.05;7.55;;;;;;;15.49;100.00;101416.41;5212806;28;20276;-80
2022/09/04 03:26:46;;;;;;;8.90;8.23;;;;;;;15.56;100.00;101429.78;5214204;28;20031;-81
2022/09/04 03:29:35;;;;;;;8.10;7.32;;;;;;;15.53;100.00;101436.53;5213149;28;20021;-80
2022/09/04 03:32:33;;;;;;;6.68;6.18;;;;;;;15.54;100.00;101438.19;5212663;28;20089;-80
2022/09/04 03:35:19;;;;;;;6.15;5.75;;;;;;;15.54;100.00;101432.72;5212097;28;20029;-79
2022/09/04 03:38:08;;;;;;;8.73;7.82;;;;;;;15.55;100.00;101439.00;5210984;28;20029;-80
2022/09/04 03:40:55;;;;;;;9.00;8.30;;;;;;;15.53;100.00;101441.16;5211378;28;20032;-80
2022/09/04 03:43:43;;;;;;;6.93;6.38;;;;;;;15.43;100.00;101413.97;5211150;28;20754;-80
2022/09/04 03:46:28;;;;;;;8.73;8.00;;;;;;;15.54;100.00;101437.34;5212328;28;20021;-81
2022/09/04 03:49:37;;;;;;;7.15;6.65;;;;;;;15.53;100.00;101442.00;5212039;28;20060;-80
2022/09/04 03:52:19;;;;;;;7.45;7.00;;;;;;;15.57;100.00;101446.91;5211876;28;20021;-80
2022/09/04 03:55:00;;;;;;;7.15;6.47;;;;;;;15.58;100.00;101448.56;5211513;28;20064;-81
2022/09/04 03:57:57;;;;;;;6.95;6.53;;;;;;;15.46;100.00;101438.72;5212335;28;20141;-80
2022/09/04 04:00:39;;;;;;;6.55;6.15;;;;;;;15.69;100.00;101458.31;5211602;28;20445;-80
2022/09/04 04:03:22;;;;;;;7.97;7.38;;;;;;;15.73;100.00;101464.84;5211870;28;20021;-80
2022/09/04 04:06:17;;;;;;;9.88;7.72;;;;;;;15.65;100.00;101451.78;5212690;28;20028;-80
2022/09/04 04:09:21;;;;;;;7.35;6.85;;;;;;;15.75;100.00;101468.94;5214346;28;20124;-81
2022/09/04 04:11:54;;;;;;;6.88;6.28;;;;;;;15.79;100.00;101474.63;5214766;28;20026;-82
2022/09/04 04:14:58;;;;;;;9.43;7.22;;;;;;;15.81;100.00;101469.72;5212690;28;20036;-81
2022/09/04 04:17:40;;;;;;;9.43;8.60;;;;;;;15.82;100.00;101460.47;5212652;28;20021;-81
2022/09/04 04:20:21;;;;;;;7.13;6.72;;;;;;;15.77;100.00;101469.47;5211451;28;20029;-81
2022/09/04 04:23:43;;;;;;;6.50;6.00;;;;;;;15.73;100.00;101479.28;5212244;28;20031;-81
2022/09/04 04:26:20;;;;;;;8.20;7.55;;;;;;;15.72;100.00;101471.38;5212468;28;20049;-80
2022/09/04 04:29:15;;;;;;;8.13;7.38;;;;;;;15.69;100.00;101471.94;5210528;28;20038;-80
2022/09/04 04:32:03;;;;;;;7.13;6.60;;;;;;;15.69;100.00;101480.09;5212157;28;20026;-81
2022/09/04 04:34:46;;;;;;;7.47;6.80;;;;;;;15.49;100.00;101467.31;5210581;28;20029;-81
2022/09/04 04:37:52;;;;;;;6.25;5.75;;;;;;;15.62;100.00;101482.28;5211996;28;20079;-82
2022/09/04 04:40:47;;;;;;;6.88;6.28;;;;;;;15.54;100.00;101478.19;5191308;28;20037;-81
2022/09/04 04:43:24;;;;;;;6.45;6.03;;;;;;;15.50;100.00;101475.19;5210963;28;20021;-81
2022/09/04 04:46:23;;;;;;;7.88;7.20;;;;;;;15.54;100.00;101480.91;5209786;28;20024;-81
2022/09/04 04:48:56;;;;;;;8.75;8.07;;;;;;;15.56;100.00;101480.66;5202514;28;20535;-80
2022/09/04 04:51:39;;;;;;;6.35;5.95;;;;;;;15.49;100.00;101468.13;5209161;28;20033;-81
2022/09/04 04:55:09;;;;;;;7.30;6.65;;;;;;;15.62;100.00;101483.09;5210736;28;20494;-81
2022/09/04 04:57:42;;;;;;;6.75;6.30;;;;;;;15.63;100.00;101486.63;5166792;28;20035;-80
2022/09/04 05:00:19;;;;;;;6.78;6.32;;;;;;;15.63;100.00;101489.34;5168276;28;20030;-81
2022/09/04 05:03:26;;;;;;;7.75;7.15;;;;;;;15.67;100.00;101493.16;5197955;28;20512;-81
2022/09/04 05:06:12;;;;;;;7.40;6.88;;;;;;;15.67;100.00;101501.34;5211198;28;20056;-80
2022/09/04 05:09:20;;;;;;;8.75;8.10;;;;;;;15.69;100.00;101510.03;5211434;28;20108;-80
2022/09/04 05:12:09;;;;;;;7.57;6.88;;;;;;;15.75;100.00;101515.22;5200618;28;20037;-80
2022/09/04 05:14:46;;;;;;;8.73;8.03;;;;;;;15.81;100.00;101513.31;5210719;28;20029;-81
2022/09/04 05:17:45;;;;;;;8.18;7.30;;;;;;;15.77;100.00;101515.75;5210633;28;20029;-81
2022/09/04 05:20:21;;;;;;;7.60;7.20;;;;;;;15.89;100.00;101526.34;5214037;28;20040;-81
2022/09/04 05:23:13;;;;;;;8.60;8.05;;;;;;;15.97;100.00;101533.97;5214890;28;20435;-81
2022/09/04 05:25:56;;;;;;;7.60;7.10;;;;;;;16.07;100.00;101536.69;5212632;28;20084;-78
2022/09/04 05:28:43;;;;;;;8.98;8.18;;;;;;;16.18;100.00;101535.53;5213918;28;20022;-80
2022/09/04 05:31:30;;;;;;;7.05;6.65;;;;;;;16.29;100.00;101536.34;5213222;28;20029;-81
2022/09/04 05:34:11;;;;;;;9.20;8.05;;;;;;;16.43;100.00;101544.75;5214638;28;20475;-81
2022/09/04 05:37:07;;;;;;;8.48;7.78;;;;;;;16.54;100.00;101549.06;5212717;28;20018;-81
2022/09/04 05:39:43;;;;;;;8.63;8.00;;;;;;;16.61;100.00;101546.03;5208539;28;20025;-81
2022/09/04 05:43:09;;;;;;;8.07;7.35;;;;;;;16.71;100.00;101557.75;5216252;28;20029;-81
2022/09/04 05:46:04;;;;;;;8.35;7.35;;;;;;;16.87;100.00;101559.28;5201420;28;20041;-80
2022/09/04 05:51:32;;;;;;;10.93;7.97;;;;;;;17.12;100.00;101561.06;5232395;28;20064;-69
2022/09/04 05:54:36;;;;;;;7.88;7.28;;;;;;;17.25;100.00;101561.53;5241624;28;20066;-71
2022/09/04 05:57:34;;;;;;;8.77;7.60;;;;;;;17.33;100.00;101569.09;5246455;28;20027;-71
2022/09/04 06:00:13;;;;;;;6.88;6.40;;;;;;;17.34;100.00;101557.09;5207952;28;20031;-71
2022/09/04 06:02:50;;;;;;;;;;;;;;;17.41;100.00;101569.31;5226488;28;20055;-71
2022/09/04 06:05:47;;;;;;;7.93;7.32;;;;;;;17.40;100.00;101573.16;5207557;28;19955;-71
2022/09/04 06:08:50;;;;;;;6.85;6.35;;;;;;;17.38;100.00;101572.63;5207754;28;20158;-72
2022/09/04 06:11:35;;;;;;;8.15;7.65;;;;;;;17.37;100.00;101581.91;5224826;28;20029;-71
2022/09/04 06:14:05;;;;;;;9.88;7.95;;;;;;;17.35;100.00;101586.84;5225614;28;20416;-70
2022/09/04 06:17:41;;;;;;;6.20;5.65;;;;;;;17.30;100.00;101584.16;5207681;28;20029;-70
2022/09/04 06:20:30;;;;;;;8.13;7.40;;;;;;;17.30;100.00;101584.16;5115661;28;20098;-70
2022/09/04 06:23:06;;;;;;;6.17;5.83;;;;;;;17.35;100.00;101594.22;5225601;28;20017;-70
2022/09/04 06:25:56;;;;;;;8.48;7.80;;;;;;;17.35;100.00;101586.84;5224356;28;20021;-71
2022/09/04 06:28:39;;;;;;;6.75;6.30;;;;;;;17.38;100.00;101589.00;5207131;28;20469;-71
2022/09/04 06:31:18;;;;;;;6.57;5.70;;;;;;;17.43;100.00;101599.88;5207086;28;20044;-70
2022/09/04 06:34:07;;;;;;;6.18;5.63;;;;;;;17.47;100.00;101591.94;5206872;28;20037;-69
2022/09/04 06:37:24;;;;;;;7.45;6.80;;;;;;;17.50;100.00;101592.19;5207226;28;20189;-69
2022/09/04 06:40:07;;;;;;;7.35;6.68;;;;;;;17.62;100.00;101596.47;5206524;28;20033;-71
2022/09/04 06:43:04;;;;;;;6.88;6.38;;;;;;;17.69;100.00;101602.47;5225063;28;20062;-70
2022/09/04 06:45:43;;;;;;;6.82;6.22;;;;;;;17.73;100.00;101607.06;5206526;28;20032;-70
2022/09/04 06:48:38;;;;;;;6.55;6.13;;;;;;;17.80;100.00;101606.75;5224973;28;20029;-70
2022/09/04 06:51:17;;;;;;;5.63;5.22;;;;;;;17.87;100.00;101602.59;5224528;28;20150;-69
2022/09/04 06:54:15;;;;;;;6.20;5.38;;;;;;;17.94;100.00;101607.69;5223752;28;20167;-70
2022/09/04 06:56:57;;;;;;;7.72;7.10;;;;;;;18.02;100.00;101601.63;5224850;28;20025;-70
2022/09/04 06:59:55;;;;;;;7.30;6.70;;;;;;;18.09;100.00;101602.09;5224448;28;20040;-69
2022/09/04 07:02:58;;;;;;;8.48;7.25;;;;;;;18.20;100.00;101611.00;5207012;28;20138;-69
2022/09/04 07:06:06;;;;;;;7.15;6.53;;;;;;;18.23;100.00;101605.78;5206811;28;20025;-69
2022/09/04 07:09:07;;;;;;;7.38;6.57;;;;;;;18.34;100.00;101619.34;5223379;28;20110;-68
2022/09/04 07:11:38;;;;;;;7.25;5.63;;;;;;;18.43;100.00;101612.16;5223705;28;20151;-69
2022/09/04 07:14:29;;;;;;;10.25;9.25;;;;;;;18.52;100.00;101616.69;5221979;28;20024;-68
2022/09/04 07:17:26;;;;;;;8.88;8.15;;;;;;;18.64;100.00;101619.03;5223945;28;20103;-67
2022/09/04 07:20:15;;;;;;;8.38;7.57;;;;;;;18.74;100.00;101623.59;5224120;28;20036;-68
2022/09/04 07:22:58;;;;;;;10.88;9.10;;;;;;;18.85;100.00;101625.06;5224230;28;20319;-68
2022/09/04 07:25:28;;;;;;;10.77;9.73;;;;;;;18.89;100.00;101623.38;5222922;28;20021;-68
2022/09/04 07:28:11;;;;;;;8.68;7.88;;;;;;;18.97;100.00;101630.16;5223762;28;20021;-67
2022/09/04 07:30:47;;;;;;;8.38;7.78;;;;;;;19.05;100.00;101626.75;5223409;28;20124;-67
2022/09/04 07:33:34;;;;;;;11.35;10.48;;;;;;;19.19;100.00;101635.88;5223826;28;20441;-67
2022/09/04 07:36:58;;;;;;;12.30;7.75;;;;;;;19.30;100.00;101637.34;5223867;28;20025;-67
2022/09/04 07:39:53;;;;;;;10.18;9.27;;;;;;;19.39;100.00;101641.03;5119543;29;20027;-66
2022/09/04 07:42:38;;;;;;;10.02;9.23;;;;;;;19.52;100.00;101634.06;5204961;28;20106;-67
2022/09/04 07:45:26;;;;;;;10.43;8.18;;;;;;;19.73;100.00;101645.50;5222926;28;20392;-67
2022/09/04 07:48:21;;;;;;;9.30;8.50;;;;;;;19.87;100.00;101646.38;5223264;28;20033;-66
2022/09/04 07:51:02;;;;;;;9.43;8.60;;;;;;;20.01;100.00;101644.47;5223449;28;20496;-66
2022/09/04 07:54:10;;;;;;;10.55;9.75;;;;;;;20.20;100.00;101652.69;5204605;28;20036;-66
2022/09/04 07:57:20;;;;;;;8.55;7.72;;;;;;;20.43;100.00;101659.16;5205762;28;20016;-66
2022/09/04 08:00:03;;;;;;;12.35;9.82;;;;;;;20.62;100.00;101651.63;5213774;28;20159;-67
2022/09/04 08:02:55;;;;;;;9.77;9.07;;;;;;;20.85;100.00;101656.09;5205556;28;20369;-65
2022/09/04 08:05:44;;;;;;;11.45;9.80;;;;;;;21.05;100.00;101665.06;5223112;28;20424;-66
2022/09/04 08:08:44;;;;;;;10.20;8.45;;;;;;;21.26;100.00;101666.25;5222103;28;20048;-66
2022/09/04 08:11:26;;;;;;;11.60;10.00;;;;;;;21.51;100.00;101673.94;5220562;28;20226;-65
2022/09/04 08:14:24;;;;;;;9.18;8.43;;;;;;;21.80;100.00;101667.22;5222660;28;20047;-66
2022/09/04 08:17:42;;;;;;;9.70;8.77;;;;;;;22.12;100.00;101672.50;5222350;28;20484;-66
2022/09/04 08:20:39;;;;;;;10.70;9.68;;;;;;;22.35;100.00;101672.44;5222943;28;20108;-66
2022/09/04 08:23:17;;;;;;;10.88;10.18;;;;;;;22.34;100.00;101668.88;5223238;28;20021;-66
2022/09/04 08:26:13;;;;;;;9.68;8.88;;;;;;;22.56;100.00;101666.06;5222761;28;20017;-66
2022/09/04 08:28:56;;;;;;;12.73;8.60;;;;;;;22.84;100.00;101666.69;5222525;28;20088;-66
2022/09/04 08:31:38;;;;;;;10.65;9.95;;;;;;;23.13;100.00;101668.88;5222750;28;20051;-66
2022/09/04 08:34:14;;;;;;;10.25;9.23;;;;;;;23.27;100.00;101668.75;5222255;28;20032;-67
2022/09/04 08:37:02;;;;;;;8.85;7.97;;;;;;;23.49;100.00;101671.38;5222524;28;20100;-66
2022/09/04 08:39:46;;;;;;;8.68;8.07;;;;;;;23.51;100.00;101676.56;5202120;28;20040;-67
2022/09/04 08:42:17;;;;;;;9.07;8.23;;;;;;;23.60;100.00;101673.84;5218347;28;20021;-66
2022/09/04 08:45:35;;;;;;;8.38;7.55;;;;;;;23.64;100.00;101675.63;5202737;28;20032;-66
2022/09/04 08:48:24;;;;;;;8.07;7.37;;;;;;;23.80;100.00;101678.69;5222935;28;20055;-66
2022/09/04 08:51:29;;;;;;;8.77;6.35;;;;;;;23.96;100.00;101676.28;5221025;28;20115;-65
2022/09/04 08:54:30;;;;;;;10.00;7.25;;;;;;;24.02;100.00;101680.47;5223337;28;20064;-66
2022/09/04 08:57:19;;;;;;;6.35;5.80;;;;;;;24.22;100.00;101680.59;5208587;28;20128;-67
2022/09/04 09:00:11;;;;;;;7.35;5.68;;;;;;;24.31;100.00;101680.59;5207109;28;20029;-67
2022/09/04 09:03:09;;;;;;;6.38;5.97;;;;;;;24.45;100.00;101675.69;5225936;28;20025;-66
2022/09/04 09:05:57;;;;;;;6.70;5.15;;;;;;;24.60;100.00;101679.03;5226158;28;20524;-66
2022/09/04 09:09:08;;;;;;;6.90;6.10;;;;;;;24.81;100.00;101677.97;5226093;28;20433;-66
2022/09/04 09:11:48;;;;;;;6.25;5.63;;;;;;;24.91;100.00;101680.34;5226133;28;20078;-66
2022/09/04 09:14:37;;;;;;;4.65;4.35;;;;;;;25.08;100.00;101682.25;5225149;28;20032;-66
2022/09/04 09:17:44;;;;;;;4.35;4.10;;;;;;;25.32;100.00;101681.59;5208232;28;20334;-66
2022/09/04 09:20:27;;;;;;;4.32;4.03;;;;;;;25.52;100.00;101680.00;5226188;28;20021;-66
2022/09/04 09:23:18;;;;;;;5.25;4.80;;;;;;;25.46;100.00;101684.91;5226168;28;20329;-66
2022/09/04 09:26:05;;;;;;;4.55;4.28;;;;;;;25.48;100.00;101682.63;5225527;28;20662;-66
2022/09/04 09:28:53;;;;;;;4.40;4.07;;;;;;;25.60;100.00;101676.34;5207705;28;20489;-67
2022/09/04 09:31:42;;;;;;;4.10;3.67;;;;;;;25.69;100.00;101684.63;5207665;28;20033;-67
2022/09/04 09:34:33;;;;;;;4.53;4.22;;;;;;;25.86;100.00;101684.47;5207181;28;20202;-66
2022/09/04 09:37:31;;;;;;;3.25;3.05;;;;;;;25.92;100.00;101688.63;5225928;28;20473;-67
2022/09/04 09:40:30;;;;;;;3.92;3.72;;;;;;;26.06;100.00;101685.56;5225718;28;20021;-67
2022/09/04 09:43:00;;;;;;;3.33;3.13;;;;;;;26.19;100.00;101688.03;5225657;28;20075;-67
2022/09/04 09:46:17;;;;;;;4.90;2.80;;;;;;;26.13;100.00;101672.78;5225229;28;20155;-66
2022/09/04 09:49:28;;;;;;;4.22;3.42;;;;;;;26.40;100.00;101687.19;5210243;28;20037;-67
2022/09/04 09:52:20;;;;;;;3.53;3.33;;;;;;;26.47;98.53;101698.50;5181692;28;20091;-67
2022/09/04 09:55:05;;;;;;;3.50;3.30;;;;;;;26.55;95.82;101687.34;5224869;28;20083;-67
2022/09/04 09:57:35;;;;;;;4.80;4.55;;;;;;;26.74;96.57;101691.50;5225617;28;20029;-67
2022/09/04 10:00:16;;;;;;;3.85;2.63;;;;;;;26.93;98.29;101686.19;5207363;28;20051;-66
2022/09/04 10:03:06;;;;;;;3.40;2.95;;;;;;;26.97;94.86;101689.09;5207374;28;20055;-67
2022/09/04 10:05:58;;;;;;;5.50;3.22;;;;;;;27.24;96.20;101672.56;5205722;28;20037;-67
2022/09/04 10:08:53;;;;;;;5.35;4.65;;;;;;;27.26;95.20;101674.97;5225432;28;20392;-68
2022/09/04 10:12:01;;;;;;;3.92;3.72;;;;;;;27.51;91.16;101668.19;5225308;28;20443;-64
2022/09/04 10:14:59;;;;;;;4.53;4.15;;;;;;;27.68;88.55;101675.47;5207001;28;20535;-66
2022/09/04 10:17:46;;;;;;;3.83;3.58;;;;;;;27.44;84.96;101669.94;5207666;28;20572;-63
2022/09/04 10:20:35;;;;;;;3.83;3.60;;;;;;;27.32;86.22;101678.31;5225592;28;20029;-64
2022/09/04 10:23:11;;;;;;;;;;;;;;;27.43;83.62;101674.69;5223017;28;21626;-64
2022/09/04 10:26:19;;;;;;;4.97;4.57;;;;;;;27.46;86.07;101674.00;5209469;28;19920;-64
2022/09/04 10:29:19;;;;;;;4.40;3.95;;;;;;;27.65;82.72;101678.16;5208243;28;20155;-67
2022/09/04 10:32:11;;;;;;;3.67;3.47;;;;;;;27.75;83.16;101677.63;5225778;28;20025;-64
2022/09/04 10:35:09;;;;;;;3.60;3.42;;;;;;;27.89;82.26;101676.09;5226570;28;20029;-66
2022/09/04 10:38:04;;;;;;;3.03;2.83;;;;;;;28.10;82.01;101673.06;5227033;28;20056;-66
2022/09/04 10:40:56;;;;;;;2.38;2.28;;;;;;;28.56;81.20;101670.75;5227611;28;20032;-69
2022/09/04 10:43:26;;;;;;;3.08;2.85;;;;;;;28.76;79.28;101666.88;5224626;28;20078;-68
2022/09/04 10:46:08;;;;;;;3.30;3.10;;;;;;;28.65;78.11;101663.00;5225297;28;20028;-71
2022/09/04 10:48:48;;;;;;;4.15;3.92;;;;;;;28.51;76.11;101673.78;5223789;28;20574;-64
2022/09/04 10:51:26;;;;;;;2.35;2.25;;;;;;;28.59;76.83;101666.44;5224630;28;20122;-64
2022/09/04 10:54:04;;;;;;;2.13;2.00;;;;;;;28.63;75.06;101673.69;5224236;28;20060;-65
2022/09/04 10:56:55;;;;;;;2.80;2.60;;;;;;;28.52;73.64;101669.84;5220737;28;20472;-65
2022/09/04 10:59:59;;;;;;;3.78;2.95;;;;;;;28.47;72.40;101661.78;5224169;28;20075;-65
2022/09/04 11:03:11;;;;;;;2.72;2.63;;;;;;;28.56;71.63;101660.44;5224462;28;20064;-65
2022/09/04 11:05:45;;;;;;;3.03;2.83;;;;;;;28.72;70.95;101663.19;5188868;28;20037;-65
2022/09/04 11:08:24;;;;;;;1.98;1.80;;;;;;;28.92;70.07;101666.06;5224234;28;20396;-65
2022/09/04 11:11:00;;;;;;;1.65;1.65;;;;;;;28.98;65.42;101659.88;5223758;28;20029;-66
2022/09/04 11:14:05;;;;;;;2.15;2.05;;;;;;;28.87;64.82;101665.16;5223136;28;20063;-66
2022/09/04 11:16:56;;;;;;;2.08;1.73;;;;;;;28.83;60.29;101650.41;5207342;28;20448;-66
2022/09/04 11:20:03;;;;;;;2.50;1.20;;;;;;;28.94;59.02;101660.94;5224226;28;20439;-65
2022/09/04 11:23:05;;;;;;;1.25;1.25;;;;;;;28.95;50.93;101659.78;5223537;28;20036;-66
2022/09/04 11:26:07;;;;;;;2.20;2.10;;;;;;;28.72;52.59;101656.81;5223207;28;20116;-64
2022/09/04 11:28:50;;;;;;;1.45;1.40;;;;;;;29.01;54.15;101659.16;5224244;28;20036;-65
2022/09/04 11:31:53;;;;;;;5.93;2.10;;;;;;;29.05;54.98;101654.47;5224544;28;20373;-65
2022/09/04 11:34:42;;;;;;;2.25;2.05;;;;;;;29.20;52.46;101655.59;5214350;28;20055;-65
2022/09/04 11:37:43;;;;;;;2.17;2.08;;;;;;;29.09;51.79;101660.13;5220738;28;20025;-66
2022/09/04 11:40:24;;;;;;;2.72;2.53;;;;;;;29.00;51.46;101667.84;5219227;28;20235;-63
2022/09/04 11:43:35;;;;;;;1.52;1.40;;;;;;;28.93;52.82;101670.44;5224641;28;20473;-66
2022/09/04 11:46:33;;;;;;;1.85;1.83;;;;;;;29.08;53.56;101669.63;5188064;28;20392;-65
2022/09/04 11:49:25;;;;;;;2.10;2.00;;;;;;;29.09;51.50;101662.91;5239527;22;20513;-64
2022/09/04 11:52:10;;;;;;;2.50;2.35;;;;;;;29.17;50.76;101661.88;5203623;28;20088;-64
2022/09/04 11:55:03;;;;;;;5.65;2.08;;;;;;;29.00;50.19;101670.63;5203845;28;20087;-62
2022/09/04 11:57:48;;;;;;;1.85;1.75;;;;;;;29.01;49.14;101663.91;5203976;28;20025;-62
2022/09/04 12:00:18;;;;;;;1.35;1.33;;;;;;;29.11;50.83;101655.81;5186836;28;20033;-61
2022/09/04 12:02:49;;;;;;;2.25;2.17;;;;;;;29.01;51.30;101652.78;5204441;28;20028;-62
2022/09/04 12:05:38;;;;;;;2.50;2.35;;;;;;;28.92;51.85;101671.63;5186547;28;20051;-62
2022/09/04 12:08:08;;;;;;;2.17;2.08;;;;;;;28.87;50.95;101673.50;5204652;28;20022;-62
2022/09/04 12:10:51;;;;;;;3.05;2.67;;;;;;;28.97;50.68;101665.78;5204227;28;20640;-62
2022/09/04 12:13:38;;;;;;;1.80;1.80;;;;;;;28.89;49.15;101662.84;5203869;28;20036;-62
2022/09/04 12:16:25;;;;;;;2.22;2.03;;;;;;;28.89;47.99;101673.16;5204026;28;20083;-62
2022/09/04 12:19:18;;;;;;;9.18;2.33;;;;;;;28.96;47.31;101667.75;5204233;28;20025;-61
2022/09/04 12:22:14;;;;;;;1.45;1.45;;;;;;;29.17;48.02;101673.00;5174026;28;20116;-61
2022/09/04 12:25:01;;;;;;;1.63;1.52;;;;;;;29.28;46.29;101664.91;5203625;28;20489;-62
2022/09/04 12:27:43;;;;;;;1.73;1.63;;;;;;;29.34;45.86;101664.25;5203890;28;20109;-63
2022/09/04 12:30:30;;;;;;;2.40;2.20;;;;;;;29.32;47.17;101663.81;5204209;28;20049;-61
2022/09/04 12:33:21;;;;;;;1.90;1.80;;;;;;;29.41;46.36;101663.66;5204178;28;20044;-61
2022/09/04 12:36:13;;;;;;;1.70;1.60;;;;;;;29.37;46.14;101677.44;5189778;28;20029;-63
2022/09/04 12:39:02;;;;;;;5.22;2.97;;;;;;;29.35;46.88;101670.63;5203817;28;20029;-62
2022/09/04 12:41:41;;;;;;;3.00;2.78;;;;;;;29.49;46.97;101662.59;5186181;28;20052;-62
2022/09/04 12:44:41;;;;;;;1.67;1.58;;;;;;;29.68;46.69;101670.97;5203515;28;20084;-62
2022/09/04 12:47:27;;;;;;;2.92;1.65;;;;;;;29.69;45.89;101680.13;5174551;28;20384;-62
2022/09/04 12:50:09;;;;;;;3.25;1.45;;;;;;;29.59;46.29;101672.34;5203764;28;20276;-62
2022/09/04 12:52:55;;;;;;;1.88;1.77;;;;;;;29.49;46.73;101662.59;5185916;28;20025;-62
2022/09/04 12:55:57;;;;;;;1.63;1.38;;;;;;;29.74;46.23;101666.69;5186528;28;20496;-62
2022/09/04 12:58:37;;;;;;;1.40;1.30;;;;;;;29.96;46.61;101675.50;5203381;28;20078;-62
2022/09/04 13:01:19;;;;;;;1.85;1.75;;;;;;;30.13;46.55;101667.50;5203440;28;20033;-62
2022/09/04 13:04:27;;;;;;;2.13;1.92;;;;;;;30.27;46.37;101674.53;5202595;28;20017;-61